Weather at Rottnest Island Airport

Public forecast

Using degrees Celsius for public forecast. Weather courtesy of forecast.io.

Closest aviation weather report (METAR) to Rottnest Island Airport

Closest report is Perth Jandakot Airport, 18.2 nm (33.7 km) ESE. Retrieved 2020/11/23 15:30 UTC (16 minutes ago):

YPJT 231530Z AUTO 17008KT 9999 // NCD 21/09 Q1011 RF000/0000

Closest aviation forecast (TAF) to Rottnest Island Airport

Forecast is more than 6 hours old.

Closest forecast is Perth Jandakot Airport, 18.2 nm (33.7 km) ESE. Retrieved 2020/11/23 06:00 UTC (10 hours ago):

TAF YPJT 230502Z 2306/2400 23014KT CAVOK FM231100 17010KT CAVOK FM231500 VRB05KT CAVOK